createdAt,value
2023-02-24T00:02:06.455Z,9.46
2023-02-24T00:04:41.134Z,9.51
2023-02-24T00:07:12.712Z,9.50
2023-02-24T00:09:40.533Z,9.44
2023-02-24T00:12:13.339Z,9.50
2023-02-24T00:14:45.146Z,9.59
2023-02-24T00:17:17.071Z,9.56
2023-02-24T00:19:46.400Z,9.60
2023-02-24T00:22:13.869Z,9.73
2023-02-24T00:24:42.166Z,9.67
2023-02-24T00:27:12.206Z,9.74
2023-02-24T00:29:42.181Z,9.68
2023-02-24T00:32:30.475Z,9.61
2023-02-24T00:34:58.100Z,9.77
2023-02-24T00:37:25.810Z,9.93
2023-02-24T00:39:58.581Z,9.87
2023-02-24T00:42:26.181Z,9.75
2023-02-24T00:44:54.186Z,9.63
2023-02-24T00:47:22.561Z,9.70
2023-02-24T00:49:50.446Z,9.69
2023-02-24T00:52:21.164Z,9.85
2023-02-24T00:54:50.978Z,9.70
2023-02-24T00:57:21.396Z,9.56
2023-02-24T00:59:51.859Z,9.84
2023-02-24T01:02:20.709Z,9.87
2023-02-24T01:04:50.016Z,9.88
2023-02-24T01:07:17.987Z,9.87
2023-02-24T01:09:45.632Z,9.86
2023-02-24T01:12:32.361Z,9.74
2023-02-24T01:15:03.024Z,9.68
2023-02-24T01:17:33.097Z,9.80
2023-02-24T01:20:15.123Z,9.69
2023-02-24T01:22:47.623Z,9.86
2023-02-24T01:25:19.017Z,9.75
2023-02-24T01:27:46.703Z,9.74
2023-02-24T01:30:16.239Z,9.82
2023-02-24T01:32:46.981Z,9.77
2023-02-24T01:35:15.158Z,9.73
2023-02-24T01:37:43.251Z,9.90
2023-02-24T01:40:20.814Z,9.84
2023-02-24T01:42:49.507Z,9.82
2023-02-24T01:45:22.077Z,9.77
2023-02-24T01:47:51.211Z,9.74
2023-02-24T01:50:22.057Z,9.84
2023-02-24T01:52:56.235Z,9.93
2023-02-24T01:55:33.842Z,9.79
2023-02-24T01:58:09.632Z,9.76
2023-02-24T02:00:44.944Z,9.76
2023-02-24T02:03:26.137Z,9.89
2023-02-24T02:06:01.605Z,9.79
2023-02-24T02:08:30.118Z,9.86
2023-02-24T02:11:06.070Z,9.78
2023-02-24T02:13:36.823Z,9.89
2023-02-24T02:16:35.230Z,9.82
2023-02-24T02:19:11.307Z,9.68
2023-02-24T02:22:02.478Z,9.69
2023-02-24T02:24:44.696Z,9.62
2023-02-24T02:27:29.406Z,9.53
2023-02-24T02:30:14.055Z,9.56
2023-02-24T02:33:06.954Z,9.47
2023-02-24T02:35:54.395Z,9.41
2023-02-24T02:38:38.104Z,9.53
2023-02-24T02:41:28.549Z,9.57
2023-02-24T02:44:34.051Z,9.71
2023-02-24T02:47:18.845Z,9.55
2023-02-24T02:49:56.774Z,9.63
2023-02-24T02:52:34.928Z,9.66
2023-02-24T02:55:12.042Z,9.66
2023-02-24T02:57:47.283Z,9.69
2023-02-24T03:00:21.520Z,9.61
2023-02-24T03:02:55.374Z,9.51
2023-02-24T03:05:32.008Z,9.60
2023-02-24T03:08:04.784Z,9.63
2023-02-24T03:10:34.432Z,9.54
2023-02-24T03:13:06.908Z,9.51
2023-02-24T03:15:35.453Z,9.52
2023-02-24T03:18:10.517Z,9.48
2023-02-24T03:21:11.867Z,9.39
2023-02-24T03:23:51.560Z,9.38
2023-02-24T03:26:41.543Z,9.47
2023-02-24T03:29:52.776Z,9.41
2023-02-24T03:32:56.615Z,9.40
2023-02-24T03:35:29.795Z,9.44
2023-02-24T03:37:59.996Z,9.61
2023-02-24T03:40:35.973Z,9.57
2023-02-24T03:43:26.105Z,9.63
2023-02-24T03:45:56.662Z,9.60
2023-02-24T03:48:26.167Z,9.67
2023-02-24T03:50:53.874Z,9.68
2023-02-24T03:53:44.432Z,9.63
2023-02-24T03:56:48.609Z,9.67
2023-02-24T03:59:57.444Z,9.62
2023-02-24T04:02:31.298Z,9.62
2023-02-24T04:05:22.269Z,9.43
2023-02-24T04:08:01.327Z,9.41
2023-02-24T04:10:53.925Z,9.52
2023-02-24T04:13:48.062Z,9.50
2023-02-24T04:16:40.713Z,9.53
2023-02-24T04:19:19.000Z,9.53
2023-02-24T04:21:50.867Z,9.41
2023-02-24T04:24:29.305Z,9.45
2023-02-24T04:27:01.968Z,9.58
2023-02-24T04:29:40.885Z,9.49
2023-02-24T04:32:12.903Z,9.51
2023-02-24T04:34:41.980Z,9.57
2023-02-24T04:37:10.032Z,9.54
2023-02-24T04:39:38.572Z,9.56
2023-02-24T04:42:10.951Z,9.53
2023-02-24T04:44:38.491Z,9.48
2023-02-24T04:47:05.997Z,9.57
2023-02-24T04:49:34.096Z,9.72
2023-02-24T04:52:01.561Z,9.57
2023-02-24T04:54:29.772Z,9.62
2023-02-24T04:56:59.198Z,9.70
2023-02-24T04:59:28.333Z,9.69
2023-02-24T05:01:55.793Z,9.92
2023-02-24T05:04:24.018Z,9.78
2023-02-24T05:06:51.522Z,9.75
2023-02-24T05:09:19.474Z,9.69
2023-02-24T05:11:50.768Z,9.66
2023-02-24T05:14:25.047Z,9.65
2023-02-24T05:16:53.034Z,9.55
2023-02-24T05:19:39.698Z,9.43
2023-02-24T05:22:07.382Z,9.41
2023-02-24T05:24:34.985Z,9.57
2023-02-24T05:27:03.923Z,9.80
2023-02-24T05:29:37.077Z,9.60
2023-02-24T05:32:05.803Z,9.75
2023-02-24T05:34:35.187Z,9.75
2023-02-24T05:37:10.216Z,9.55
2023-02-24T05:39:38.433Z,9.62
2023-02-24T05:42:06.717Z,10.00
2023-02-24T05:44:35.745Z,9.80
2023-02-24T05:47:05.627Z,9.58
2023-02-24T05:49:35.775Z,9.67
2023-02-24T05:52:09.052Z,9.93
2023-02-24T05:54:44.171Z,9.80
2023-02-24T05:57:24.840Z,9.63
2023-02-24T05:59:53.214Z,9.78
2023-02-24T06:02:27.505Z,9.63
2023-02-24T06:04:55.819Z,9.52
2023-02-24T06:07:28.631Z,9.45
2023-02-24T06:09:58.717Z,9.56
2023-02-24T06:12:30.088Z,9.68
2023-02-24T06:15:00.412Z,9.92
2023-02-24T06:17:29.367Z,9.71
2023-02-24T06:19:56.880Z,9.88
2023-02-24T06:22:26.404Z,10.53
2023-02-24T06:24:56.840Z,10.43
2023-02-24T06:27:25.319Z,10.71
2023-02-24T06:29:55.298Z,10.45
2023-02-24T06:32:26.530Z,10.35
2023-02-24T06:34:55.230Z,10.19
2023-02-24T06:37:23.356Z,10.20
2023-02-24T06:39:51.199Z,10.13
2023-02-24T06:42:19.089Z,10.35
2023-02-24T06:44:47.693Z,10.22
2023-02-24T06:47:17.989Z,10.38
2023-02-24T06:49:45.684Z,10.40
2023-02-24T06:52:19.052Z,10.47
2023-02-24T06:54:49.766Z,10.92
2023-02-24T06:57:17.842Z,11.07
2023-02-24T06:59:46.196Z,10.53
2023-02-24T07:02:17.696Z,10.97
2023-02-24T07:04:45.364Z,10.82
2023-02-24T07:07:14.471Z,11.01
2023-02-24T07:09:42.753Z,11.11
2023-02-24T07:12:12.698Z,11.03
2023-02-24T07:14:40.738Z,10.76
2023-02-24T07:17:08.566Z,11.02
2023-02-24T07:19:36.993Z,10.78
2023-02-24T07:22:04.600Z,10.62
2023-02-24T07:24:36.943Z,10.63
2023-02-24T07:27:12.078Z,10.25
2023-02-24T07:29:40.387Z,10.35
2023-02-24T07:32:11.373Z,10.85
2023-02-24T07:34:40.592Z,10.59
2023-02-24T07:37:10.636Z,10.64
2023-02-24T07:39:39.979Z,10.63
2023-02-24T07:42:15.403Z,10.94
2023-02-24T07:44:49.134Z,11.06
2023-02-24T07:47:16.910Z,10.89
2023-02-24T07:49:45.635Z,10.91
2023-02-24T07:52:13.341Z,10.75
2023-02-24T07:54:40.834Z,10.62
2023-02-24T07:57:13.507Z,10.66
2023-02-24T07:59:47.607Z,10.58
2023-02-24T08:02:15.914Z,10.70
2023-02-24T08:04:50.098Z,10.56
2023-02-24T08:07:25.223Z,10.59
2023-02-24T08:10:10.437Z,10.67
2023-02-24T08:12:42.844Z,11.25
2023-02-24T08:15:17.402Z,11.64
2023-02-24T08:17:47.513Z,11.22
2023-02-24T08:20:15.763Z,11.48
2023-02-24T08:22:52.023Z,11.68
2023-02-24T08:25:35.564Z,11.43
2023-02-24T08:28:09.586Z,11.30
2023-02-24T08:30:47.057Z,11.21
2023-02-24T08:33:22.510Z,11.72
2023-02-24T08:36:02.134Z,11.56
2023-02-24T08:38:51.867Z,11.53
2023-02-24T08:41:29.226Z,11.32
2023-02-24T08:43:56.807Z,11.72
2023-02-24T08:46:32.822Z,11.42
2023-02-24T08:49:01.180Z,11.43
2023-02-24T08:51:35.162Z,11.47
2023-02-24T08:54:11.452Z,11.05
2023-02-24T08:56:49.173Z,11.25
2023-02-24T08:59:54.486Z,11.50
2023-02-24T09:02:23.256Z,12.03
2023-02-24T09:05:14.257Z,11.94
2023-02-24T09:07:42.850Z,12.10
2023-02-24T09:10:19.086Z,11.78
2023-02-24T09:12:49.046Z,12.10
2023-02-24T09:15:16.704Z,12.26
2023-02-24T09:17:45.970Z,12.51
2023-02-24T09:20:56.380Z,12.18
2023-02-24T09:23:30.026Z,12.06
2023-02-24T09:25:58.013Z,12.55
2023-02-24T09:28:29.185Z,12.16
2023-02-24T09:31:00.466Z,12.83
2023-02-24T09:33:39.563Z,12.54
2023-02-24T09:36:28.237Z,12.59
2023-02-24T09:39:00.803Z,12.84
2023-02-24T09:42:06.089Z,12.73
2023-02-24T09:44:41.209Z,12.64
2023-02-24T09:47:42.389Z,12.41
2023-02-24T09:50:51.284Z,12.42
2023-02-24T09:53:17.984Z,13.32
2023-02-24T09:56:00.556Z,13.72
2023-02-24T09:59:10.431Z,13.24
2023-02-24T10:02:05.334Z,13.24
2023-02-24T10:05:07.944Z,13.39
2023-02-24T10:07:41.847Z,13.37
2023-02-24T10:10:28.076Z,13.34
2023-02-24T10:13:17.069Z,13.28
2023-02-24T10:15:59.339Z,13.11
2023-02-24T10:19:01.253Z,13.41
2023-02-24T10:21:49.590Z,13.59
2023-02-24T10:24:29.412Z,13.63
2023-02-24T10:27:01.210Z,14.16
2023-02-24T10:30:28.052Z,13.91
2023-02-24T10:33:00.586Z,13.23
2023-02-24T10:35:37.877Z,13.39
2023-02-24T10:38:05.900Z,13.37
2023-02-24T10:40:57.178Z,13.77
2023-02-24T10:43:31.521Z,14.19
2023-02-24T10:46:17.156Z,14.14
2023-02-24T10:49:01.040Z,14.22
2023-02-24T10:51:40.455Z,14.21
2023-02-24T10:54:48.678Z,14.07
2023-02-24T10:57:38.265Z,14.47
2023-02-24T11:00:51.980Z,14.86
2023-02-24T11:03:36.077Z,14.99
2023-02-24T11:06:04.473Z,14.52
2023-02-24T11:08:48.129Z,14.35
2023-02-24T11:11:30.715Z,14.27
2023-02-24T11:14:20.181Z,14.29
2023-02-24T11:17:12.638Z,14.51
2023-02-24T11:20:01.950Z,14.57
2023-02-24T11:22:37.120Z,14.71
2023-02-24T11:25:23.712Z,14.37
2023-02-24T11:27:55.950Z,14.16
2023-02-24T11:30:56.775Z,14.46
2023-02-24T11:33:57.779Z,15.34
2023-02-24T11:36:46.472Z,15.17
2023-02-24T11:39:42.171Z,15.29
2023-02-24T11:42:27.455Z,15.73
2023-02-24T11:45:22.773Z,15.82
2023-02-24T11:48:03.269Z,15.14
2023-02-24T11:50:59.216Z,15.60
2023-02-24T11:53:56.688Z,16.12
2023-02-24T11:56:40.098Z,16.33
2023-02-24T11:59:36.508Z,16.63
2023-02-24T12:02:17.336Z,16.73
2023-02-24T12:05:13.544Z,16.29
2023-02-24T12:07:56.636Z,16.20
2023-02-24T12:10:39.069Z,15.87
2023-02-24T12:13:16.482Z,16.39
2023-02-24T12:15:59.547Z,16.66
2023-02-24T12:18:34.972Z,16.88
2023-02-24T12:21:36.423Z,16.89
2023-02-24T12:24:08.609Z,16.84
2023-02-24T12:27:22.908Z,16.80
2023-02-24T12:30:34.260Z,17.66
2023-02-24T12:33:35.516Z,18.04
2023-02-24T12:36:20.919Z,18.62
2023-02-24T12:39:01.996Z,18.46
2023-02-24T12:42:05.545Z,17.82
2023-02-24T12:45:32.049Z,17.57
2023-02-24T12:48:46.842Z,18.08
2023-02-24T12:51:47.432Z,18.23
2023-02-24T12:54:30.302Z,18.25
2023-02-24T12:57:31.240Z,18.63
2023-02-24T13:00:09.849Z,18.41
2023-02-24T13:03:00.341Z,17.92
2023-02-24T13:05:41.989Z,17.93
2023-02-24T13:08:36.965Z,17.76
2023-02-24T13:11:38.597Z,17.43
2023-02-24T13:14:41.062Z,17.45
2023-02-24T13:17:11.247Z,17.29
2023-02-24T13:19:41.643Z,16.43
2023-02-24T13:22:16.813Z,16.05
2023-02-24T13:25:10.364Z,16.01
2023-02-24T13:27:44.880Z,16.12
2023-02-24T13:30:12.667Z,16.03
2023-02-24T13:32:47.695Z,15.83
2023-02-24T13:35:18.071Z,16.08
2023-02-24T13:37:48.172Z,16.06
2023-02-24T13:40:22.665Z,16.14
2023-02-24T13:43:04.812Z,16.30
2023-02-24T13:45:40.079Z,16.08
2023-02-24T13:48:37.245Z,16.62
2023-02-24T13:51:50.217Z,17.09
2023-02-24T13:54:20.257Z,18.27
2023-02-24T13:56:48.490Z,19.08
2023-02-24T13:59:52.076Z,19.37
2023-02-24T14:02:25.927Z,19.88
2023-02-24T14:04:57.126Z,20.29
2023-02-24T14:07:36.287Z,20.44
2023-02-24T14:10:21.620Z,20.45
2023-02-24T14:12:51.294Z,20.44
2023-02-24T14:15:26.700Z,20.95
2023-02-24T14:18:04.765Z,20.91
2023-02-24T14:20:37.530Z,20.91
2023-02-24T14:23:31.969Z,21.08
2023-02-24T14:26:11.728Z,20.83
2023-02-24T14:28:40.978Z,20.34
2023-02-24T14:31:17.559Z,20.29
2023-02-24T14:33:46.570Z,20.76
2023-02-24T14:36:32.189Z,21.03
2023-02-24T14:39:19.393Z,20.99
2023-02-24T14:41:49.918Z,20.99
2023-02-24T14:44:29.431Z,20.47
2023-02-24T14:47:02.119Z,20.22
2023-02-24T14:49:35.656Z,20.33
2023-02-24T14:52:16.110Z,20.21
2023-02-24T14:55:18.454Z,20.15
2023-02-24T14:57:54.028Z,19.56
2023-02-24T15:00:30.282Z,18.86
2023-02-24T15:03:15.544Z,18.59
2023-02-24T15:05:46.190Z,18.73
2023-02-24T15:08:32.157Z,18.49
2023-02-24T15:10:59.908Z,18.35
2023-02-24T15:13:42.330Z,18.00
2023-02-24T15:16:31.966Z,17.09
2023-02-24T15:19:01.972Z,16.71
2023-02-24T15:21:40.411Z,16.36
2023-02-24T15:24:31.020Z,16.25
2023-02-24T15:27:02.856Z,15.97
2023-02-24T15:29:32.137Z,15.71
2023-02-24T15:32:01.296Z,15.68
2023-02-24T15:34:32.967Z,15.27
2023-02-24T15:37:12.674Z,15.00
2023-02-24T15:39:44.547Z,14.88
2023-02-24T15:42:35.290Z,14.64
2023-02-24T15:45:07.789Z,14.72
2023-02-24T15:47:46.333Z,15.08
2023-02-24T15:50:14.326Z,14.86
2023-02-24T15:52:42.975Z,14.67
2023-02-24T15:55:18.711Z,14.34
2023-02-24T15:57:47.624Z,14.13
2023-02-24T16:00:21.471Z,14.32
2023-02-24T16:02:52.028Z,14.03
2023-02-24T16:05:19.667Z,14.00
2023-02-24T16:07:48.572Z,14.01
2023-02-24T16:10:29.170Z,13.86
2023-02-24T16:13:02.449Z,13.84
2023-02-24T16:15:39.301Z,14.15
2023-02-24T16:18:20.975Z,13.65
2023-02-24T16:20:57.657Z,13.75
2023-02-24T16:23:27.464Z,13.62
2023-02-24T16:26:01.480Z,13.52
2023-02-24T16:28:30.945Z,13.47
2023-02-24T16:31:03.264Z,13.52
2023-02-24T16:33:51.851Z,13.22
2023-02-24T16:36:25.781Z,13.13
2023-02-24T16:38:53.857Z,12.96
2023-02-24T16:41:21.611Z,12.97
2023-02-24T16:43:49.392Z,12.94
2023-02-24T16:46:22.619Z,13.26
2023-02-24T16:48:53.492Z,13.35
2023-02-24T16:51:22.993Z,13.10
2023-02-24T16:53:51.308Z,12.83
2023-02-24T16:56:21.286Z,12.79
2023-02-24T16:58:49.250Z,12.76
2023-02-24T17:01:21.486Z,12.83
2023-02-24T17:03:54.738Z,12.91
2023-02-24T17:06:25.057Z,13.02
2023-02-24T17:08:55.154Z,13.18
2023-02-24T17:11:28.679Z,13.29
2023-02-24T17:13:56.244Z,13.11
2023-02-24T17:16:24.497Z,13.17
2023-02-24T17:18:52.756Z,13.06
2023-02-24T17:21:20.771Z,13.10
2023-02-24T17:23:48.605Z,12.90
2023-02-24T17:26:16.596Z,12.81
2023-02-24T17:28:46.174Z,13.23
2023-02-24T17:31:17.025Z,12.76
2023-02-24T17:33:44.671Z,12.90
2023-02-24T17:36:14.784Z,12.62
2023-02-24T17:38:42.318Z,12.61
2023-02-24T17:41:10.659Z,12.73
2023-02-24T17:43:42.293Z,12.53
2023-02-24T17:46:10.732Z,12.45
2023-02-24T17:48:38.906Z,12.72
2023-02-24T17:51:07.964Z,12.65
2023-02-24T17:53:36.522Z,12.32
2023-02-24T17:56:08.450Z,12.44
2023-02-24T17:58:40.784Z,12.45
2023-02-24T18:01:16.013Z,12.58
2023-02-24T18:03:43.683Z,12.46
2023-02-24T18:06:14.465Z,12.24
2023-02-24T18:08:43.765Z,12.11
2023-02-24T18:11:21.503Z,12.05
2023-02-24T18:13:53.217Z,11.91
2023-02-24T18:16:22.445Z,11.70
2023-02-24T18:18:51.681Z,11.75
2023-02-24T18:21:20.884Z,11.84
2023-02-24T18:23:49.779Z,12.09
2023-02-24T18:26:18.298Z,11.61
2023-02-24T18:28:45.937Z,11.97
2023-02-24T18:31:17.936Z,11.95
2023-02-24T18:33:46.321Z,11.49
2023-02-24T18:36:17.087Z,11.35
2023-02-24T18:38:46.527Z,11.51
2023-02-24T18:41:21.875Z,11.29
2023-02-24T18:43:56.966Z,11.24
2023-02-24T18:46:29.517Z,11.21
2023-02-24T18:49:00.934Z,11.15
2023-02-24T18:51:31.709Z,11.21
2023-02-24T18:54:01.943Z,11.38
2023-02-24T18:56:35.164Z,11.15
2023-02-24T18:59:05.710Z,11.17
2023-02-24T19:01:39.448Z,10.94
2023-02-24T19:04:10.035Z,10.83
2023-02-24T19:06:41.462Z,10.77
2023-02-24T19:09:12.306Z,10.77
2023-02-24T19:11:41.783Z,10.69
2023-02-24T19:14:13.617Z,10.69
2023-02-24T19:16:42.101Z,10.58
2023-02-24T19:19:16.765Z,10.59
2023-02-24T19:21:49.648Z,10.73
2023-02-24T19:24:18.464Z,10.63
2023-02-24T19:26:49.535Z,10.55
2023-02-24T19:29:18.543Z,10.57
2023-02-24T19:31:47.835Z,10.70
2023-02-24T19:34:16.689Z,10.65
2023-02-24T19:36:48.954Z,10.65
2023-02-24T19:39:19.827Z,10.68
2023-02-24T19:42:11.475Z,10.68
2023-02-24T19:44:39.991Z,10.40
2023-02-24T19:47:08.437Z,10.49
2023-02-24T19:49:38.930Z,10.53
2023-02-24T19:52:07.987Z,10.61
2023-02-24T19:54:43.017Z,10.42
2023-02-24T19:57:11.929Z,10.65
2023-02-24T19:59:46.327Z,10.45
2023-02-24T20:02:17.164Z,10.30
2023-02-24T20:04:45.196Z,10.23
2023-02-24T20:07:12.935Z,10.09
2023-02-24T20:09:45.436Z,10.00
2023-02-24T20:12:16.055Z,9.98
2023-02-24T20:14:49.735Z,10.13
2023-02-24T20:17:17.831Z,10.00
2023-02-24T20:19:56.140Z,9.87
2023-02-24T20:22:27.013Z,10.15
2023-02-24T20:24:55.167Z,10.15
2023-02-24T20:27:24.279Z,10.03
2023-02-24T20:29:53.673Z,9.88
2023-02-24T20:32:24.124Z,9.93
2023-02-24T20:34:53.235Z,9.92
2023-02-24T20:37:21.466Z,9.87
2023-02-24T20:39:49.836Z,9.79
2023-02-24T20:42:19.326Z,9.83
2023-02-24T20:44:50.409Z,9.77
2023-02-24T20:47:32.064Z,9.88
2023-02-24T20:50:03.499Z,9.72
2023-02-24T20:52:34.450Z,9.73
2023-02-24T20:55:50.506Z,9.64
2023-02-24T20:58:19.979Z,9.75
2023-02-24T21:00:50.735Z,9.90
2023-02-24T21:03:19.412Z,10.03
2023-02-24T21:06:09.658Z,9.88
2023-02-24T21:08:40.671Z,9.87
2023-02-24T21:11:10.986Z,9.86
2023-02-24T21:13:47.338Z,9.64
2023-02-24T21:16:18.783Z,9.53
2023-02-24T21:18:51.844Z,9.62
2023-02-24T21:21:40.899Z,9.60
2023-02-24T21:24:09.356Z,9.35
2023-02-24T21:26:36.918Z,9.35
2023-02-24T21:29:04.994Z,9.28
2023-02-24T21:31:33.136Z,9.24
2023-02-24T21:34:01.287Z,9.14
2023-02-24T21:36:30.899Z,9.02
2023-02-24T21:39:03.099Z,9.00
2023-02-24T21:41:30.756Z,9.21
2023-02-24T21:44:00.791Z,9.40
2023-02-24T21:46:29.602Z,9.47
2023-02-24T21:48:59.765Z,9.21
2023-02-24T21:51:29.261Z,8.97
2023-02-24T21:53:57.929Z,8.82
2023-02-24T21:56:29.696Z,8.86
2023-02-24T21:59:03.576Z,8.90
2023-02-24T22:01:41.264Z,8.95
2023-02-24T22:04:16.511Z,9.15
2023-02-24T22:06:47.191Z,8.97
2023-02-24T22:09:20.146Z,8.70
2023-02-24T22:11:49.468Z,8.62
2023-02-24T22:14:18.878Z,8.35
2023-02-24T22:16:46.389Z,8.38
2023-02-24T22:19:15.408Z,8.30
2023-02-24T22:21:43.193Z,8.13
2023-02-24T22:24:15.174Z,8.08
2023-02-24T22:26:43.895Z,8.14
2023-02-24T22:29:12.149Z,7.93
2023-02-24T22:31:44.233Z,7.93
2023-02-24T22:34:13.146Z,7.69
2023-02-24T22:36:40.623Z,7.71
2023-02-24T22:39:09.385Z,7.58
2023-02-24T22:41:38.308Z,7.78
2023-02-24T22:44:06.951Z,7.71
2023-02-24T22:46:38.154Z,7.60
2023-02-24T22:49:06.888Z,7.89
2023-02-24T22:51:35.493Z,7.83
2023-02-24T22:54:03.608Z,8.00
2023-02-24T22:56:31.782Z,7.55
2023-02-24T22:59:00.638Z,7.45
2023-02-24T23:01:35.019Z,7.62
2023-02-24T23:04:14.946Z,7.27
2023-02-24T23:06:43.763Z,6.99
2023-02-24T23:09:11.537Z,6.73
2023-02-24T23:11:42.017Z,6.84
2023-02-24T23:14:16.431Z,6.92
2023-02-24T23:16:47.334Z,7.03
2023-02-24T23:19:19.859Z,7.17
2023-02-24T23:21:53.452Z,7.25
2023-02-24T23:24:22.549Z,6.98
2023-02-24T23:26:57.493Z,6.88
2023-02-24T23:29:27.656Z,6.76
2023-02-24T23:31:55.573Z,6.65
2023-02-24T23:34:23.317Z,6.71
2023-02-24T23:36:51.174Z,6.94
2023-02-24T23:39:25.539Z,7.02
2023-02-24T23:41:57.507Z,7.02
2023-02-24T23:44:26.321Z,6.78
2023-02-24T23:46:54.772Z,6.60
2023-02-24T23:49:22.186Z,6.66
2023-02-24T23:51:49.698Z,6.63
2023-02-24T23:54:18.988Z,6.60
2023-02-24T23:56:47.004Z,6.50
2023-02-24T23:59:15.196Z,6.74
